sensor_id;sensor_type;location;lat;lon;timestamp;P1;durP1;ratioP1;P2;durP2;ratioP2
29162;SDS011;20331;53.144;8.208;2023-09-19T00:01:02;7.82;;;1.83;;
29162;SDS011;20331;53.144;8.208;2023-09-19T00:06:24;6.55;;;2.28;;
29162;SDS011;20331;53.144;8.208;2023-09-19T00:11:47;7.85;;;2.05;;
29162;SDS011;20331;53.144;8.208;2023-09-19T00:17:11;9.45;;;2.25;;
29162;SDS011;20331;53.144;8.208;2023-09-19T00:22:32;7.63;;;2.05;;
29162;SDS011;20331;53.144;8.208;2023-09-19T00:27:54;7.85;;;1.90;;
29162;SDS011;20331;53.144;8.208;2023-09-19T00:33:16;6.50;;;1.92;;
29162;SDS011;20331;53.144;8.208;2023-09-19T00:38:40;6.07;;;1.50;;
29162;SDS011;20331;53.144;8.208;2023-09-19T00:44:02;11.20;;;1.85;;
29162;SDS011;20331;53.144;8.208;2023-09-19T00:49:25;7.85;;;1.67;;
29162;SDS011;20331;53.144;8.208;2023-09-19T00:54:47;6.38;;;1.55;;
29162;SDS011;20331;53.144;8.208;2023-09-19T01:00:09;6.20;;;1.40;;
29162;SDS011;20331;53.144;8.208;2023-09-19T01:05:33;6.97;;;1.38;;
29162;SDS011;20331;53.144;8.208;2023-09-19T01:10:56;7.28;;;1.58;;
29162;SDS011;20331;53.144;8.208;2023-09-19T01:22:37;4.63;;;1.38;;
29162;SDS011;20331;53.144;8.208;2023-09-19T01:33:54;3.90;;;1.40;;
29162;SDS011;20331;53.144;8.208;2023-09-19T01:39:21;6.25;;;1.60;;
29162;SDS011;20331;53.144;8.208;2023-09-19T01:44:55;6.40;;;1.30;;
29162;SDS011;20331;53.144;8.208;2023-09-19T01:50:38;5.50;;;1.35;;
29162;SDS011;20331;53.144;8.208;2023-09-19T01:56:05;5.55;;;1.35;;
29162;SDS011;20331;53.144;8.208;2023-09-19T02:01:33;6.85;;;1.20;;
29162;SDS011;20331;53.144;8.208;2023-09-19T02:06:58;7.97;;;1.35;;
29162;SDS011;20331;53.144;8.208;2023-09-19T02:12:20;4.68;;;1.30;;
29162;SDS011;20331;53.144;8.208;2023-09-19T02:17:42;7.15;;;1.38;;
29162;SDS011;20331;53.144;8.208;2023-09-19T02:23:05;3.90;;;1.40;;
29162;SDS011;20331;53.144;8.208;2023-09-19T02:28:29;4.20;;;1.48;;
29162;SDS011;20331;53.144;8.208;2023-09-19T02:33:51;4.93;;;1.20;;
29162;SDS011;20331;53.144;8.208;2023-09-19T02:39:13;6.28;;;1.58;;
29162;SDS011;20331;53.144;8.208;2023-09-19T02:44:35;5.18;;;1.40;;
29162;SDS011;20331;53.144;8.208;2023-09-19T02:49:56;7.07;;;1.20;;
29162;SDS011;20331;53.144;8.208;2023-09-19T02:55:18;6.82;;;1.33;;
29162;SDS011;20331;53.144;8.208;2023-09-19T03:00:41;7.85;;;2.15;;
29162;SDS011;20331;53.144;8.208;2023-09-19T03:06:03;7.00;;;1.98;;
29162;SDS011;20331;53.144;8.208;2023-09-19T03:11:25;11.32;;;1.80;;
29162;SDS011;20331;53.144;8.208;2023-09-19T03:16:47;9.52;;;1.80;;
29162;SDS011;20331;53.144;8.208;2023-09-19T03:22:09;6.75;;;1.55;;
29162;SDS011;20331;53.144;8.208;2023-09-19T03:27:31;7.88;;;1.70;;
29162;SDS011;20331;53.144;8.208;2023-09-19T03:32:53;5.38;;;1.60;;
29162;SDS011;20331;53.144;8.208;2023-09-19T03:38:14;8.15;;;1.70;;
29162;SDS011;20331;53.144;8.208;2023-09-19T03:43:36;15.90;;;2.15;;
29162;SDS011;20331;53.144;8.208;2023-09-19T03:48:58;10.98;;;2.13;;
29162;SDS011;20331;53.144;8.208;2023-09-19T03:54:20;8.60;;;2.03;;
29162;SDS011;20331;53.144;8.208;2023-09-19T03:59:41;8.65;;;2.08;;
29162;SDS011;20331;53.144;8.208;2023-09-19T04:05:04;6.00;;;1.50;;
29162;SDS011;20331;53.144;8.208;2023-09-19T04:10:27;8.80;;;1.77;;
29162;SDS011;20331;53.144;8.208;2023-09-19T04:15:49;11.15;;;1.77;;
29162;SDS011;20331;53.144;8.208;2023-09-19T04:21:11;10.50;;;2.10;;
29162;SDS011;20331;53.144;8.208;2023-09-19T04:26:33;6.43;;;1.70;;
29162;SDS011;20331;53.144;8.208;2023-09-19T04:31:54;8.43;;;1.90;;
29162;SDS011;20331;53.144;8.208;2023-09-19T04:37:17;9.63;;;1.77;;
29162;SDS011;20331;53.144;8.208;2023-09-19T04:42:42;6.90;;;1.48;;
29162;SDS011;20331;53.144;8.208;2023-09-19T04:48:14;10.27;;;1.65;;
29162;SDS011;20331;53.144;8.208;2023-09-19T04:53:37;5.07;;;1.45;;
29162;SDS011;20331;53.144;8.208;2023-09-19T04:58:59;5.30;;;1.50;;
29162;SDS011;20331;53.144;8.208;2023-09-19T05:04:21;10.15;;;1.65;;
29162;SDS011;20331;53.144;8.208;2023-09-19T05:09:43;9.63;;;1.80;;
29162;SDS011;20331;53.144;8.208;2023-09-19T05:15:04;7.60;;;1.77;;
29162;SDS011;20331;53.144;8.208;2023-09-19T05:20:30;5.78;;;1.70;;
29162;SDS011;20331;53.144;8.208;2023-09-19T05:25:54;13.40;;;1.90;;
29162;SDS011;20331;53.144;8.208;2023-09-19T05:31:18;6.57;;;1.80;;
29162;SDS011;20331;53.144;8.208;2023-09-19T05:36:39;7.45;;;1.67;;
29162;SDS011;20331;53.144;8.208;2023-09-19T05:42:02;9.43;;;1.77;;
29162;SDS011;20331;53.144;8.208;2023-09-19T05:47:24;11.95;;;2.28;;
29162;SDS011;20331;53.144;8.208;2023-09-19T05:52:53;11.27;;;1.70;;
29162;SDS011;20331;53.144;8.208;2023-09-19T05:58:15;7.40;;;1.67;;
29162;SDS011;20331;53.144;8.208;2023-09-19T06:03:39;9.10;;;2.17;;
29162;SDS011;20331;53.144;8.208;2023-09-19T06:09:01;11.38;;;2.25;;
29162;SDS011;20331;53.144;8.208;2023-09-19T06:14:23;11.40;;;2.38;;
29162;SDS011;20331;53.144;8.208;2023-09-19T06:19:45;16.20;;;2.10;;
29162;SDS011;20331;53.144;8.208;2023-09-19T06:25:09;10.50;;;2.15;;
29162;SDS011;20331;53.144;8.208;2023-09-19T06:30:40;10.88;;;2.40;;
29162;SDS011;20331;53.144;8.208;2023-09-19T06:36:03;13.75;;;2.50;;
29162;SDS011;20331;53.144;8.208;2023-09-19T06:41:25;13.48;;;2.30;;
29162;SDS011;20331;53.144;8.208;2023-09-19T06:46:47;13.68;;;2.42;;
29162;SDS011;20331;53.144;8.208;2023-09-19T06:52:12;11.23;;;2.45;;
29162;SDS011;20331;53.144;8.208;2023-09-19T06:57:34;15.48;;;2.30;;
29162;SDS011;20331;53.144;8.208;2023-09-19T07:02:59;11.57;;;2.22;;
29162;SDS011;20331;53.144;8.208;2023-09-19T07:08:22;14.05;;;1.95;;
29162;SDS011;20331;53.144;8.208;2023-09-19T07:13:44;16.25;;;2.72;;
29162;SDS011;20331;53.144;8.208;2023-09-19T07:19:06;13.30;;;2.35;;
29162;SDS011;20331;53.144;8.208;2023-09-19T07:24:28;17.17;;;2.75;;
29162;SDS011;20331;53.144;8.208;2023-09-19T07:29:50;14.40;;;2.60;;
29162;SDS011;20331;53.144;8.208;2023-09-19T07:35:15;14.60;;;2.53;;
29162;SDS011;20331;53.144;8.208;2023-09-19T07:40:36;14.07;;;2.28;;
29162;SDS011;20331;53.144;8.208;2023-09-19T07:46:02;13.23;;;2.33;;
29162;SDS011;20331;53.144;8.208;2023-09-19T07:51:25;10.90;;;2.05;;
29162;SDS011;20331;53.144;8.208;2023-09-19T07:56:47;10.80;;;1.92;;
29162;SDS011;20331;53.144;8.208;2023-09-19T08:02:09;10.32;;;2.03;;
29162;SDS011;20331;53.144;8.208;2023-09-19T08:07:37;14.52;;;2.28;;
29162;SDS011;20331;53.144;8.208;2023-09-19T08:13:00;9.27;;;1.98;;
29162;SDS011;20331;53.144;8.208;2023-09-19T08:18:23;12.90;;;2.13;;
29162;SDS011;20331;53.144;8.208;2023-09-19T08:23:45;10.43;;;1.98;;
29162;SDS011;20331;53.144;8.208;2023-09-19T08:29:07;11.95;;;2.10;;
29162;SDS011;20331;53.144;8.208;2023-09-19T08:34:33;19.45;;;2.45;;
29162;SDS011;20331;53.144;8.208;2023-09-19T08:39:55;9.65;;;2.15;;
29162;SDS011;20331;53.144;8.208;2023-09-19T08:45:17;8.73;;;1.75;;
29162;SDS011;20331;53.144;8.208;2023-09-19T08:51:23;10.13;;;2.53;;
29162;SDS011;20331;53.144;8.208;2023-09-19T08:56:28;12.88;;;2.22;;
29162;SDS011;20331;53.144;8.208;2023-09-19T09:01:51;12.07;;;2.28;;
29162;SDS011;20331;53.144;8.208;2023-09-19T09:07:15;12.88;;;2.03;;
29162;SDS011;20331;53.144;8.208;2023-09-19T09:12:38;12.30;;;2.28;;
29162;SDS011;20331;53.144;8.208;2023-09-19T09:18:02;6.57;;;1.77;;
29162;SDS011;20331;53.144;8.208;2023-09-19T09:23:25;7.65;;;1.80;;
29162;SDS011;20331;53.144;8.208;2023-09-19T09:28:50;13.38;;;2.30;;
29162;SDS011;20331;53.144;8.208;2023-09-19T09:34:13;13.55;;;2.10;;
29162;SDS011;20331;53.144;8.208;2023-09-19T09:39:35;14.63;;;2.60;;
29162;SDS011;20331;53.144;8.208;2023-09-19T09:45:11;10.63;;;1.88;;
29162;SDS011;20331;53.144;8.208;2023-09-19T09:50:37;14.75;;;2.10;;
29162;SDS011;20331;53.144;8.208;2023-09-19T09:56:18;10.75;;;2.25;;
29162;SDS011;20331;53.144;8.208;2023-09-19T10:01:46;13.68;;;2.42;;
29162;SDS011;20331;53.144;8.208;2023-09-19T10:07:09;9.13;;;1.92;;
29162;SDS011;20331;53.144;8.208;2023-09-19T10:12:45;13.63;;;2.15;;
29162;SDS011;20331;53.144;8.208;2023-09-19T10:18:10;14.20;;;2.45;;
29162;SDS011;20331;53.144;8.208;2023-09-19T10:23:32;12.32;;;2.35;;
29162;SDS011;20331;53.144;8.208;2023-09-19T10:28:56;9.23;;;2.20;;
29162;SDS011;20331;53.144;8.208;2023-09-19T10:39:47;7.70;;;2.15;;
29162;SDS011;20331;53.144;8.208;2023-09-19T10:45:10;9.93;;;2.67;;
29162;SDS011;20331;53.144;8.208;2023-09-19T10:50:45;13.98;;;2.33;;
29162;SDS011;20331;53.144;8.208;2023-09-19T11:01:42;11.30;;;1.95;;
29162;SDS011;20331;53.144;8.208;2023-09-19T11:07:14;9.02;;;2.05;;
29162;SDS011;20331;53.144;8.208;2023-09-19T11:23:44;12.15;;;2.42;;
29162;SDS011;20331;53.144;8.208;2023-09-19T11:29:29;14.00;;;2.50;;
29162;SDS011;20331;53.144;8.208;2023-09-19T11:34:52;7.32;;;2.28;;
29162;SDS011;20331;53.144;8.208;2023-09-19T11:40:29;12.05;;;2.08;;
29162;SDS011;20331;53.144;8.208;2023-09-19T11:51:19;10.25;;;2.20;;
29162;SDS011;20331;53.144;8.208;2023-09-19T11:56:52;16.00;;;2.75;;
29162;SDS011;20331;53.144;8.208;2023-09-19T12:02:27;10.57;;;2.30;;
29162;SDS011;20331;53.144;8.208;2023-09-19T12:08:04;11.20;;;2.60;;
29162;SDS011;20331;53.144;8.208;2023-09-19T12:13:29;12.80;;;2.17;;
29162;SDS011;20331;53.144;8.208;2023-09-19T12:18:52;10.48;;;2.70;;
29162;SDS011;20331;53.144;8.208;2023-09-19T12:24:15;9.15;;;2.20;;
29162;SDS011;20331;53.144;8.208;2023-09-19T12:35:06;9.60;;;2.22;;
29162;SDS011;20331;53.144;8.208;2023-09-19T12:40:34;13.63;;;2.25;;
29162;SDS011;20331;53.144;8.208;2023-09-19T12:45:59;8.73;;;2.50;;
29162;SDS011;20331;53.144;8.208;2023-09-19T12:51:21;10.02;;;2.13;;
29162;SDS011;20331;53.144;8.208;2023-09-19T12:56:45;12.35;;;2.20;;
29162;SDS011;20331;53.144;8.208;2023-09-19T13:02:10;14.30;;;2.30;;
29162;SDS011;20331;53.144;8.208;2023-09-19T13:07:40;8.40;;;1.92;;
29162;SDS011;20331;53.144;8.208;2023-09-19T13:13:22;11.93;;;2.25;;
29162;SDS011;20331;53.144;8.208;2023-09-19T13:18:44;11.00;;;1.90;;
29162;SDS011;20331;53.144;8.208;2023-09-19T13:24:22;11.93;;;2.05;;
29162;SDS011;20331;53.144;8.208;2023-09-19T13:29:47;13.95;;;2.20;;
29162;SDS011;20331;53.144;8.208;2023-09-19T13:35:08;9.10;;;1.80;;
29162;SDS011;20331;53.144;8.208;2023-09-19T13:40:31;9.27;;;1.95;;
29162;SDS011;20331;53.144;8.208;2023-09-19T13:51:19;7.80;;;1.80;;
29162;SDS011;20331;53.144;8.208;2023-09-19T13:56:41;11.40;;;2.10;;
29162;SDS011;20331;53.144;8.208;2023-09-19T14:02:02;10.07;;;1.55;;
29162;SDS011;20331;53.144;8.208;2023-09-19T14:07:24;9.10;;;1.75;;
29162;SDS011;20331;53.144;8.208;2023-09-19T14:12:46;10.82;;;1.90;;
29162;SDS011;20331;53.144;8.208;2023-09-19T14:18:09;11.40;;;2.13;;
29162;SDS011;20331;53.144;8.208;2023-09-19T14:23:37;7.72;;;1.77;;
29162;SDS011;20331;53.144;8.208;2023-09-19T14:28:59;9.38;;;1.77;;
29162;SDS011;20331;53.144;8.208;2023-09-19T14:34:21;10.43;;;1.90;;
29162;SDS011;20331;53.144;8.208;2023-09-19T14:39:43;8.93;;;1.90;;
29162;SDS011;20331;53.144;8.208;2023-09-19T14:45:07;9.68;;;1.75;;
29162;SDS011;20331;53.144;8.208;2023-09-19T14:50:30;6.68;;;1.83;;
29162;SDS011;20331;53.144;8.208;2023-09-19T14:55:52;7.63;;;1.60;;
29162;SDS011;20331;53.144;8.208;2023-09-19T15:01:16;13.48;;;1.63;;
29162;SDS011;20331;53.144;8.208;2023-09-19T15:06:38;6.40;;;1.60;;
29162;SDS011;20331;53.144;8.208;2023-09-19T15:11:59;10.25;;;1.58;;
29162;SDS011;20331;53.144;8.208;2023-09-19T15:17:21;8.63;;;1.73;;
29162;SDS011;20331;53.144;8.208;2023-09-19T15:22:42;12.75;;;1.80;;
29162;SDS011;20331;53.144;8.208;2023-09-19T15:28:05;9.82;;;1.30;;
29162;SDS011;20331;53.144;8.208;2023-09-19T15:33:29;7.05;;;1.30;;
29162;SDS011;20331;53.144;8.208;2023-09-19T15:39:05;8.48;;;1.63;;
29162;SDS011;20331;53.144;8.208;2023-09-19T15:44:28;8.63;;;1.95;;
29162;SDS011;20331;53.144;8.208;2023-09-19T15:49:50;7.35;;;1.40;;
29162;SDS011;20331;53.144;8.208;2023-09-19T15:55:12;8.60;;;1.40;;
29162;SDS011;20331;53.144;8.208;2023-09-19T16:00:33;4.85;;;1.40;;
29162;SDS011;20331;53.144;8.208;2023-09-19T16:05:58;5.13;;;1.27;;
29162;SDS011;20331;53.144;8.208;2023-09-19T16:11:19;8.25;;;1.73;;
29162;SDS011;20331;53.144;8.208;2023-09-19T16:16:42;4.45;;;1.40;;
29162;SDS011;20331;53.144;8.208;2023-09-19T16:22:04;6.18;;;1.17;;
29162;SDS011;20331;53.144;8.208;2023-09-19T16:27:25;7.68;;;1.40;;
29162;SDS011;20331;53.144;8.208;2023-09-19T16:32:47;6.18;;;1.35;;
29162;SDS011;20331;53.144;8.208;2023-09-19T16:38:09;4.05;;;1.20;;
29162;SDS011;20331;53.144;8.208;2023-09-19T16:43:31;4.90;;;1.10;;
29162;SDS011;20331;53.144;8.208;2023-09-19T16:48:55;6.90;;;1.45;;
29162;SDS011;20331;53.144;8.208;2023-09-19T16:54:20;9.67;;;1.17;;
29162;SDS011;20331;53.144;8.208;2023-09-19T16:59:41;6.45;;;1.50;;
29162;SDS011;20331;53.144;8.208;2023-09-19T17:05:03;6.07;;;1.30;;
29162;SDS011;20331;53.144;8.208;2023-09-19T17:10:25;8.45;;;1.25;;
29162;SDS011;20331;53.144;8.208;2023-09-19T17:15:58;4.63;;;1.15;;
29162;SDS011;20331;53.144;8.208;2023-09-19T17:21:25;4.85;;;1.00;;
29162;SDS011;20331;53.144;8.208;2023-09-19T17:26:48;4.43;;;1.27;;
29162;SDS011;20331;53.144;8.208;2023-09-19T17:32:10;4.60;;;1.00;;
29162;SDS011;20331;53.144;8.208;2023-09-19T17:37:32;4.45;;;1.10;;
29162;SDS011;20331;53.144;8.208;2023-09-19T17:42:55;5.35;;;1.20;;
29162;SDS011;20331;53.144;8.208;2023-09-19T17:48:20;4.28;;;0.93;;
29162;SDS011;20331;53.144;8.208;2023-09-19T17:53:42;4.55;;;1.10;;
29162;SDS011;20331;53.144;8.208;2023-09-19T17:59:05;7.47;;;1.50;;
29162;SDS011;20331;53.144;8.208;2023-09-19T18:04:26;3.45;;;1.20;;
29162;SDS011;20331;53.144;8.208;2023-09-19T18:09:50;3.53;;;1.20;;
29162;SDS011;20331;53.144;8.208;2023-09-19T18:15:12;5.18;;;1.15;;
29162;SDS011;20331;53.144;8.208;2023-09-19T18:20:34;5.18;;;1.00;;
29162;SDS011;20331;53.144;8.208;2023-09-19T18:25:56;3.80;;;1.13;;
29162;SDS011;20331;53.144;8.208;2023-09-19T18:31:19;8.48;;;1.35;;
29162;SDS011;20331;53.144;8.208;2023-09-19T18:36:41;4.00;;;1.00;;
29162;SDS011;20331;53.144;8.208;2023-09-19T18:42:02;4.45;;;1.10;;
29162;SDS011;20331;53.144;8.208;2023-09-19T18:47:27;4.57;;;1.02;;
29162;SDS011;20331;53.144;8.208;2023-09-19T18:52:50;4.50;;;1.02;;
29162;SDS011;20331;53.144;8.208;2023-09-19T18:58:12;4.10;;;1.13;;
29162;SDS011;20331;53.144;8.208;2023-09-19T19:03:34;5.97;;;1.23;;
29162;SDS011;20331;53.144;8.208;2023-09-19T19:08:57;4.00;;;1.23;;
29162;SDS011;20331;53.144;8.208;2023-09-19T19:14:19;6.70;;;1.05;;
29162;SDS011;20331;53.144;8.208;2023-09-19T19:19:41;3.65;;;1.10;;
29162;SDS011;20331;53.144;8.208;2023-09-19T19:25:04;2.35;;;0.75;;
29162;SDS011;20331;53.144;8.208;2023-09-19T19:30:26;4.50;;;1.00;;
29162;SDS011;20331;53.144;8.208;2023-09-19T19:35:48;6.88;;;1.00;;
29162;SDS011;20331;53.144;8.208;2023-09-19T19:41:09;6.05;;;1.30;;
29162;SDS011;20331;53.144;8.208;2023-09-19T19:46:31;7.72;;;1.30;;
29162;SDS011;20331;53.144;8.208;2023-09-19T19:51:53;8.30;;;1.08;;
29162;SDS011;20331;53.144;8.208;2023-09-19T19:57:15;5.47;;;1.10;;
29162;SDS011;20331;53.144;8.208;2023-09-19T20:02:38;6.15;;;1.52;;
29162;SDS011;20331;53.144;8.208;2023-09-19T20:08:00;5.22;;;1.00;;
29162;SDS011;20331;53.144;8.208;2023-09-19T20:13:24;8.13;;;1.95;;
29162;SDS011;20331;53.144;8.208;2023-09-19T20:18:46;7.32;;;1.77;;
29162;SDS011;20331;53.144;8.208;2023-09-19T20:24:08;5.03;;;1.33;;
29162;SDS011;20331;53.144;8.208;2023-09-19T20:29:35;4.95;;;1.55;;
29162;SDS011;20331;53.144;8.208;2023-09-19T20:34:58;5.65;;;1.60;;
29162;SDS011;20331;53.144;8.208;2023-09-19T20:40:21;11.05;;;1.55;;
29162;SDS011;20331;53.144;8.208;2023-09-19T20:45:43;5.43;;;1.30;;
29162;SDS011;20331;53.144;8.208;2023-09-19T20:56:29;5.70;;;1.50;;
29162;SDS011;20331;53.144;8.208;2023-09-19T21:01:53;5.80;;;1.40;;
29162;SDS011;20331;53.144;8.208;2023-09-19T21:07:14;5.43;;;1.45;;
29162;SDS011;20331;53.144;8.208;2023-09-19T21:12:36;3.72;;;1.23;;
29162;SDS011;20331;53.144;8.208;2023-09-19T21:17:58;6.40;;;1.42;;
29162;SDS011;20331;53.144;8.208;2023-09-19T21:23:20;6.90;;;1.80;;
29162;SDS011;20331;53.144;8.208;2023-09-19T21:28:41;4.88;;;1.40;;
29162;SDS011;20331;53.144;8.208;2023-09-19T21:34:05;6.20;;;1.48;;
29162;SDS011;20331;53.144;8.208;2023-09-19T21:39:27;7.70;;;1.60;;
29162;SDS011;20331;53.144;8.208;2023-09-19T21:44:49;4.38;;;1.30;;
29162;SDS011;20331;53.144;8.208;2023-09-19T21:50:11;5.78;;;1.38;;
29162;SDS011;20331;53.144;8.208;2023-09-19T21:55:32;5.97;;;1.55;;
29162;SDS011;20331;53.144;8.208;2023-09-19T22:00:54;7.75;;;1.55;;
29162;SDS011;20331;53.144;8.208;2023-09-19T22:06:16;6.22;;;1.45;;
29162;SDS011;20331;53.144;8.208;2023-09-19T22:11:38;5.70;;;1.70;;
29162;SDS011;20331;53.144;8.208;2023-09-19T22:17:01;3.97;;;1.50;;
29162;SDS011;20331;53.144;8.208;2023-09-19T22:22:23;6.63;;;1.50;;
29162;SDS011;20331;53.144;8.208;2023-09-19T22:27:46;5.32;;;1.58;;
29162;SDS011;20331;53.144;8.208;2023-09-19T22:33:07;3.72;;;1.20;;
29162;SDS011;20331;53.144;8.208;2023-09-19T22:38:32;4.85;;;1.55;;
29162;SDS011;20331;53.144;8.208;2023-09-19T22:43:57;5.90;;;1.50;;
29162;SDS011;20331;53.144;8.208;2023-09-19T22:49:20;6.53;;;1.80;;
29162;SDS011;20331;53.144;8.208;2023-09-19T22:54:42;3.95;;;1.38;;
29162;SDS011;20331;53.144;8.208;2023-09-19T23:00:04;4.03;;;1.42;;
29162;SDS011;20331;53.144;8.208;2023-09-19T23:05:32;9.18;;;1.73;;
29162;SDS011;20331;53.144;8.208;2023-09-19T23:11:01;5.32;;;1.48;;
29162;SDS011;20331;53.144;8.208;2023-09-19T23:16:25;7.22;;;1.25;;
29162;SDS011;20331;53.144;8.208;2023-09-19T23:21:57;9.05;;;1.60;;
29162;SDS011;20331;53.144;8.208;2023-09-19T23:27:44;4.45;;;1.45;;
29162;SDS011;20331;53.144;8.208;2023-09-19T23:33:08;4.75;;;1.40;;
29162;SDS011;20331;53.144;8.208;2023-09-19T23:38:32;4.90;;;1.30;;
29162;SDS011;20331;53.144;8.208;2023-09-19T23:43:55;7.78;;;1.63;;
29162;SDS011;20331;53.144;8.208;2023-09-19T23:49:19;6.50;;;1.60;;
29162;SDS011;20331;53.144;8.208;2023-09-19T23:54:42;5.13;;;1.40;;
